Time;durP1;ratioP1;P1;durP2;ratioP2;P2;SDS_P1;SDS_P2;PMS_P1;PMS_P2;Temp;Humidity;BMP_temperature;BMP_pressure;BME280_temperature;BME280_humidity;BME280_pressure;Samples;Min_cycle;Max_cycle;Signal;HPM_P1;HPM_P2
2022/12/24 00:01:51;;;;;;;18.77;12.60;;;-0.60;99.90;-1.60;99288;;;;578216;246;24146;-80
2022/12/24 00:04:18;;;;;;;23.80;14.67;;;-0.60;99.90;-1.60;99289;;;;577829;246;24060;-81
2022/12/24 00:06:46;;;;;;;25.73;14.57;;;-0.60;99.90;-1.60;99291;;;;577826;246;24130;-78
2022/12/24 00:09:14;;;;;;;33.07;16.43;;;-0.60;99.90;-1.60;99289;;;;578521;245;24088;-74
2022/12/24 00:11:42;;;;;;;41.03;18.37;;;-0.60;99.90;-1.60;99294;;;;581957;246;24080;-78
2022/12/24 00:14:10;;;;;;;39.70;18.60;;;-0.60;99.90;-1.60;99291;;;;577575;246;24096;-78
2022/12/24 00:16:38;;;;;;;37.33;18.87;;;-0.50;99.90;-1.60;99295;;;;570529;246;24075;-80
2022/12/24 00:19:06;;;;;;;30.77;18.10;;;-0.50;99.90;-1.60;99288;;;;577162;246;24121;-78
2022/12/24 00:21:34;;;;;;;30.03;16.77;;;-0.50;99.90;-1.60;99296;;;;571340;246;24078;-79
2022/12/24 00:24:04;;;;;;;31.57;16.83;;;-0.60;99.90;-1.60;99300;;;;577476;246;24079;-77
2022/12/24 00:26:30;;;;;;;29.03;16.60;;;-0.60;99.90;-1.60;99297;;;;575788;247;24125;-75
2022/12/24 00:28:58;;;;;;;29.10;15.67;;;-0.50;99.90;-1.50;99307;;;;563182;249;24077;-74
2022/12/24 00:31:27;;;;;;;21.13;13.73;;;-0.40;99.90;-1.30;99306;;;;576121;249;24214;-78
2022/12/24 00:33:54;;;;;;;21.93;13.50;;;-0.30;99.90;-1.30;99300;;;;575030;249;24137;-76
2022/12/24 00:36:22;;;;;;;20.40;12.10;;;-0.20;99.90;-1.30;99305;;;;564337;254;24123;-73
2022/12/24 00:38:50;;;;;;;19.50;12.60;;;-0.30;99.90;-1.40;99311;;;;558451;256;24192;-74
2022/12/24 00:41:27;;;;;;;20.57;13.20;;;-0.30;99.90;-1.40;99305;;;;555399;253;24112;-72
2022/12/24 00:43:59;;;;;;;19.43;13.27;;;-0.40;99.90;-1.40;99294;;;;555981;254;24238;-73
2022/12/24 00:46:27;;;;;;;19.93;14.70;;;-0.40;99.90;-1.50;99309;;;;556748;254;24202;-78
2022/12/24 00:48:55;;;;;;;22.13;14.27;;;-0.40;99.90;-1.60;99316;;;;556057;254;24114;-76
2022/12/24 00:51:23;;;;;;;25.73;15.23;;;-0.50;99.90;-1.70;99304;;;;563911;254;24109;-75
2022/12/24 00:53:54;;;;;;;22.37;15.63;;;-0.60;99.90;-1.70;99300;;;;563876;254;24153;-74
2022/12/24 00:56:23;;;;;;;25.80;15.93;;;-0.70;99.90;-1.80;99312;;;;556068;254;24130;-74
2022/12/24 00:58:48;;;;;;;25.63;16.37;;;-0.70;99.90;-1.80;99313;;;;564305;254;25203;-79
2022/12/24 01:01:19;;;;;;;22.20;15.70;;;-0.70;99.90;-1.80;99317;;;;555904;254;24130;-73
2022/12/24 01:03:44;;;;;;;25.03;16.80;;;-0.80;99.90;-1.80;99315;;;;550286;254;24172;-76
2022/12/24 01:06:12;;;;;;;21.50;14.57;;;-0.80;99.90;-1.80;99321;;;;557416;254;24155;-74
2022/12/24 01:08:40;;;;;;;21.40;13.57;;;-0.80;99.90;-1.90;99335;;;;550917;254;24172;-75
2022/12/24 01:11:08;;;;;;;24.80;15.40;;;-0.80;99.90;-1.90;99341;;;;564574;254;24113;-73
2022/12/24 01:13:39;;;;;;;21.77;14.63;;;-0.80;99.90;-1.90;99336;;;;556575;254;24101;-74
2022/12/24 01:16:04;;;;;;;29.77;15.93;;;-0.80;99.90;-1.80;99333;;;;564224;254;24125;-76
2022/12/24 01:18:32;;;;;;;24.07;15.13;;;-0.80;99.90;-1.70;99344;;;;557503;254;24125;-75
2022/12/24 01:21:00;;;;;;;21.30;14.37;;;-0.70;99.90;-1.70;99347;;;;556139;254;24112;-75
2022/12/24 01:23:27;;;;;;;23.30;14.37;;;-0.60;99.90;-1.60;99342;;;;555877;254;24123;-81
2022/12/24 01:25:55;;;;;;;21.73;14.87;;;-0.60;99.90;-1.60;99349;;;;556312;254;24125;-74
2022/12/24 01:28:25;;;;;;;19.13;15.60;;;-0.60;99.90;-1.70;99345;;;;550993;254;24108;-76
2022/12/24 01:30:53;;;;;;;20.30;13.50;;;-0.60;99.90;-1.70;99338;;;;556658;247;24131;-74
2022/12/24 01:33:24;;;;;;;23.60;14.57;;;-0.70;99.90;-1.70;99346;;;;556342;254;24125;-73
2022/12/24 01:35:49;;;;;;;21.53;14.47;;;-0.70;99.90;-1.80;99341;;;;556399;254;24135;-73
2022/12/24 01:38:18;;;;;;;22.67;13.87;;;-0.70;99.90;-1.80;99350;;;;556414;254;24095;-72
2022/12/24 01:43:32;;;;;;;21.37;16.13;;;-0.80;99.90;-1.80;99353;;;;556196;254;24136;-73
2022/12/24 01:46:03;;;;;;;25.20;17.20;;;-0.70;99.90;-1.80;99348;;;;564772;254;24178;-75
2022/12/24 01:48:39;;;;;;;23.70;14.70;;;-0.80;99.90;-1.80;99353;;;;550532;254;24093;-74
2022/12/24 01:51:28;;;;;;;21.03;14.43;;;-0.80;99.90;-1.90;99357;;;;564621;254;24163;-77
2022/12/24 01:54:08;;;;;;;22.13;15.20;;;-0.80;99.90;-1.90;99354;;;;564334;254;24113;-73
2022/12/24 01:56:38;;;;;;;22.83;15.77;;;-0.80;99.90;-1.90;99353;;;;564709;254;24114;-74
2022/12/24 01:59:10;;;;;;;21.23;15.53;;;-0.80;99.90;-1.90;99356;;;;556343;254;24140;-75
2022/12/24 02:01:33;;;;;;;26.60;17.20;;;-0.90;99.90;-1.90;99364;;;;564306;254;24114;-72
2022/12/24 02:04:01;;;;;;;21.57;14.83;;;-0.90;99.90;-1.90;99367;;;;564383;254;24111;-73
2022/12/24 02:06:29;;;;;;;22.73;15.10;;;-0.90;99.90;-2.00;99376;;;;556100;254;24159;-74
2022/12/24 02:08:56;;;;;;;22.07;15.53;;;-0.90;99.90;-2.00;99383;;;;556112;254;24129;-74
2022/12/24 02:11:24;;;;;;;21.80;14.63;;;-0.90;99.90;-1.90;99378;;;;555981;254;24097;-78
2022/12/24 02:13:55;;;;;;;21.50;15.13;;;-0.90;99.90;-1.70;99380;;;;550574;254;24203;-73
2022/12/24 02:16:35;;;;;;;21.60;15.00;;;-0.80;99.90;-1.60;99379;;;;550631;253;24132;-75
2022/12/24 02:19:15;;;;;;;24.13;15.43;;;-0.60;99.90;-1.50;99381;;;;551910;254;24127;-80
2022/12/24 02:22:04;;;;;;;23.70;14.00;;;-0.50;99.90;-1.40;99392;;;;565033;254;24152;-74
2022/12/24 02:24:37;;;;;;;24.37;14.40;;;-0.40;99.90;-1.20;99393;;;;565195;247;24116;-79
2022/12/24 02:27:17;;;;;;;22.87;14.70;;;-0.20;99.90;-1.10;99386;;;;565297;254;24128;-76
2022/12/24 02:30:12;;;;;;;18.63;14.00;;;-0.10;99.90;-1.00;99396;;;;564738;254;24182;-82
2022/12/24 02:32:55;;;;;;;22.23;14.30;;;0.10;99.90;-0.90;99385;;;;564984;253;24152;-79
2022/12/24 02:35:37;;;;;;;17.90;13.23;;;0.10;99.90;-0.80;99392;;;;551128;254;24137;-80
2022/12/24 02:38:11;;;;;;;20.80;13.43;;;0.20;99.90;-0.70;99403;;;;564653;254;24171;-81
2022/12/24 02:40:45;;;;;;;17.00;11.60;;;0.30;99.90;-0.60;99411;;;;556268;254;24115;-82
2022/12/24 02:43:18;;;;;;;16.47;12.17;;;0.40;99.90;-0.50;99407;;;;551129;254;24145;-80
2022/12/24 02:45:46;;;;;;;17.73;12.17;;;0.50;99.90;-0.50;99413;;;;563990;254;24180;-81
2022/12/24 02:48:14;;;;;;;11.23;9.70;;;0.50;99.90;-0.50;99402;;;;555994;254;24133;-75
2022/12/24 02:50:42;;;;;;;14.47;9.87;;;0.50;99.90;-0.40;99409;;;;556381;253;24147;-79
2022/12/24 02:53:10;;;;;;;14.50;10.27;;;0.60;99.90;-0.40;99410;;;;550746;254;24124;-78
2022/12/24 02:55:44;;;;;;;14.67;9.63;;;0.60;99.90;-0.40;99416;;;;564117;254;24120;-74
2022/12/24 02:58:24;;;;;;;14.17;9.80;;;0.60;99.90;-0.40;99418;;;;562414;254;24110;-74
2022/12/24 03:01:15;;;;;;;14.68;10.90;;;0.70;99.90;-0.30;99401;;;;552343;254;35383;-74
2022/12/24 03:04:01;;;;;;;9.63;5.30;;;0.70;99.90;-0.30;99412;;;;563651;251;24139;-75
2022/12/24 03:06:37;;;;;;;6.63;5.30;;;0.70;99.90;-0.30;99416;;;;551131;254;24139;-78
2022/12/24 03:09:20;;;;;;;14.23;8.67;;;0.70;99.90;-0.30;99424;;;;563712;251;24156;-73
2022/12/24 03:12:01;;;;;;;12.10;8.80;;;0.70;99.90;-0.40;99418;;;;552449;254;24128;-73
2022/12/24 03:14:29;;;;;;;11.73;8.80;;;0.60;99.90;-0.50;99422;;;;562025;254;24116;-74
2022/12/24 03:16:57;;;;;;;10.90;9.17;;;0.50;99.90;-0.60;99413;;;;564512;254;24099;-78
2022/12/24 03:19:25;;;;;;;12.13;8.73;;;0.40;99.90;-0.70;99423;;;;563942;248;24234;-81
2022/12/24 03:21:53;;;;;;;12.47;8.77;;;0.30;99.90;-0.70;99431;;;;555001;254;24182;-81
2022/12/24 03:24:21;;;;;;;10.00;8.33;;;0.30;99.90;-0.80;99427;;;;555292;254;24182;-79
2022/12/24 03:26:48;;;;;;;11.03;7.80;;;0.20;99.90;-0.90;99424;;;;555613;254;24112;-78
2022/12/24 03:29:16;;;;;;;11.43;7.90;;;0.20;99.90;-0.90;99425;;;;565705;253;24138;-77
2022/12/24 03:31:44;;;;;;;12.37;8.07;;;0.10;99.90;-1.00;99436;;;;565146;254;24129;-78
2022/12/24 03:34:12;;;;;;;9.77;7.77;;;0.00;99.90;-1.10;99428;;;;550300;254;24132;-80
2022/12/24 03:36:40;;;;;;;9.33;6.70;;;-0.10;99.90;-1.20;99429;;;;552757;254;24155;-80
2022/12/24 03:39:09;;;;;;;11.03;7.13;;;-0.20;99.90;-1.20;99435;;;;555582;254;24094;-80
2022/12/24 03:41:39;;;;;;;11.90;7.70;;;-0.20;99.90;-1.30;99434;;;;556029;254;24108;-76
2022/12/24 03:44:05;;;;;;;10.37;7.47;;;-0.30;99.90;-1.30;99442;;;;564593;254;24134;-77
2022/12/24 03:46:33;;;;;;;8.93;7.33;;;-0.30;99.90;-1.40;99440;;;;564747;254;24129;-75
2022/12/24 03:49:00;;;;;;;10.37;7.53;;;-0.40;99.90;-1.50;99439;;;;556055;254;25142;-72
2022/12/24 03:51:28;;;;;;;10.70;7.87;;;-0.40;99.90;-1.50;99439;;;;555059;254;24120;-72
2022/12/24 03:53:59;;;;;;;8.90;7.37;;;-0.50;99.90;-1.60;99447;;;;555189;254;24105;-72
2022/12/24 03:56:28;;;;;;;9.93;8.20;;;-0.50;99.90;-1.70;99450;;;;555590;254;24166;-75
2022/12/24 03:58:53;;;;;;;10.47;8.47;;;-0.70;99.90;-1.70;99456;;;;558240;254;24163;-74
2022/12/24 04:01:21;;;;;;;10.83;8.80;;;-0.70;99.90;-1.80;99444;;;;555934;254;24185;-73
2022/12/24 04:03:49;;;;;;;12.17;8.90;;;-0.70;99.90;-1.80;99448;;;;555908;254;24146;-73
2022/12/24 04:06:17;;;;;;;12.50;8.07;;;-0.80;99.90;-1.80;99456;;;;555174;254;24110;-73
2022/12/24 04:08:44;;;;;;;11.07;8.20;;;-0.80;99.90;-1.90;99445;;;;563060;251;24150;-73
2022/12/24 04:11:15;;;;;;;10.07;7.37;;;-0.80;99.90;-1.90;99455;;;;554776;254;24091;-73
2022/12/24 04:13:40;;;;;;;13.32;9.13;;;-0.90;99.90;-1.90;99458;;;;544449;254;35969;-72
2022/12/24 04:16:08;;;;;;;10.57;7.00;;;-0.80;99.90;-1.90;99451;;;;555184;254;24163;-72
2022/12/24 04:18:36;;;;;;;7.40;5.80;;;-0.90;99.90;-1.90;99451;;;;555034;254;24123;-72
2022/12/24 04:21:04;;;;;;;7.20;5.70;;;-0.90;99.90;-1.90;99460;;;;563044;254;24214;-72
2022/12/24 04:23:35;;;;;;;7.20;5.57;;;-0.80;99.90;-1.90;99457;;;;549195;254;24144;-71
2022/12/24 04:26:03;;;;;;;7.17;5.80;;;-0.80;99.90;-1.80;99458;;;;554555;254;24148;-72
2022/12/24 04:28:31;;;;;;;7.93;6.17;;;-0.80;99.90;-1.80;99473;;;;555156;254;24132;-72
2022/12/24 04:31:02;;;;;;;7.10;5.83;;;-0.80;99.90;-1.70;99469;;;;563069;254;24114;-71
2022/12/24 04:33:30;;;;;;;8.87;6.10;;;-0.70;99.90;-1.60;99468;;;;554829;254;24145;-72
2022/12/24 04:35:58;;;;;;;6.70;5.63;;;-0.60;99.90;-1.50;99468;;;;554901;254;24120;-72
2022/12/24 04:38:26;;;;;;;8.07;5.70;;;-0.50;99.90;-1.40;99465;;;;549491;254;24157;-73
2022/12/24 04:41:05;;;;;;;7.50;6.47;;;-0.40;99.90;-1.30;99464;;;;564289;253;24174;-73
2022/12/24 04:43:36;;;;;;;9.57;6.87;;;-0.30;99.90;-1.20;99473;;;;555806;254;24129;-73
2022/12/24 04:46:19;;;;;;;10.27;7.07;;;-0.10;99.90;-1.10;99481;;;;550405;254;24131;-75
2022/12/24 04:48:47;;;;;;;8.50;6.80;;;-0.10;99.90;-1.00;99478;;;;563961;254;24105;-74
2022/12/24 04:51:15;;;;;;;9.87;7.17;;;0.00;99.90;-0.90;99475;;;;552493;254;24136;-74
2022/12/24 04:53:43;;;;;;;11.07;7.90;;;0.10;99.90;-0.80;99478;;;;563752;254;24194;-73
2022/12/24 04:56:13;;;;;;;10.00;7.67;;;0.20;99.90;-0.80;99477;;;;563896;253;24160;-76
2022/12/24 04:58:41;;;;;;;9.30;7.90;;;0.20;99.90;-0.70;99478;;;;550445;254;24153;-72
2022/12/24 05:01:09;;;;;;;10.43;8.17;;;0.30;99.90;-0.70;99487;;;;555746;254;24107;-72
2022/12/24 05:03:38;;;;;;;11.30;8.03;;;0.40;99.90;-0.60;99489;;;;555754;254;24245;-77
2022/12/24 05:06:09;;;;;;;15.23;8.50;;;0.40;99.90;-0.60;99487;;;;556077;254;24110;-74
2022/12/24 05:08:34;;;;;;;11.60;7.43;;;0.40;99.90;-0.70;99490;;;;556450;254;24191;-74
2022/12/24 05:11:02;;;;;;;8.63;7.17;;;0.30;99.90;-0.80;99482;;;;564238;254;24106;-74
2022/12/24 05:13:32;;;;;;;10.50;6.37;;;0.20;99.90;-0.90;99476;;;;564256;254;24121;-73
2022/12/24 05:15:57;;;;;;;8.63;6.67;;;0.10;99.90;-1.00;99493;;;;564434;254;24158;-74
2022/12/24 05:18:25;;;;;;;11.73;7.50;;;0.00;99.90;-1.10;99484;;;;556135;247;24128;-77
2022/12/24 05:20:53;;;;;;;10.27;7.90;;;-0.10;99.90;-1.20;99486;;;;556202;254;24103;-73
2022/12/24 05:26:22;;;;;;;11.10;7.97;;;-0.30;99.90;-1.40;99488;;;;564381;254;24155;-73
2022/12/24 05:28:52;;;;;;;11.50;8.63;;;-0.40;99.90;-1.50;99497;;;;551234;254;24146;-73
2022/12/24 05:31:23;;;;;;;10.73;8.67;;;-0.40;99.90;-1.50;99503;;;;564392;254;24104;-73
2022/12/24 05:33:48;;;;;;;9.27;8.37;;;-0.50;99.90;-1.50;99499;;;;555988;254;24190;-73
2022/12/24 05:36:16;;;;;;;17.63;10.90;;;-0.50;99.90;-1.50;99500;;;;556017;254;24108;-78
2022/12/24 05:38:44;;;;;;;14.80;10.20;;;-0.50;99.90;-1.50;99511;;;;563336;254;24120;-79
2022/12/24 05:41:12;;;;;;;13.20;10.07;;;-0.50;99.90;-1.50;99508;;;;560774;250;24178;-73
2022/12/24 05:43:40;;;;;;;14.40;9.33;;;-0.50;99.90;-1.50;99502;;;;574372;250;24092;-75
2022/12/24 05:46:11;;;;;;;14.47;10.23;;;-0.50;99.90;-1.50;99513;;;;574428;250;24111;-79
2022/12/24 05:48:36;;;;;;;15.17;9.53;;;-0.50;99.90;-1.50;99511;;;;574263;250;24103;-79
2022/12/24 05:51:07;;;;;;;14.73;10.30;;;-0.50;99.90;-1.50;99511;;;;574403;248;24122;-74
2022/12/24 05:53:34;;;;;;;13.77;9.63;;;-0.50;99.90;-1.50;99518;;;;575334;249;24101;-74
2022/12/24 05:56:05;;;;;;;14.18;11.82;;;-0.50;99.90;-1.60;99505;;;;569791;250;35268;-74
2022/12/24 05:58:34;;;;;;;15.53;10.30;;;-0.60;99.90;-1.70;99518;;;;567166;250;25140;-73
2022/12/24 06:01:02;;;;;;;11.97;9.63;;;-0.60;99.90;-1.80;99515;;;;575098;250;24187;-74
2022/12/24 06:03:30;;;;;;;13.43;8.77;;;-0.70;99.90;-1.80;99515;;;;561397;249;24094;-74
2022/12/24 06:06:06;;;;;;;11.53;9.10;;;-0.80;99.90;-1.90;99516;;;;566438;250;24103;-77
2022/12/24 06:08:34;;;;;;;10.33;8.70;;;-0.80;99.90;-1.90;99529;;;;561329;250;24081;-75
2022/12/24 06:11:02;;;;;;;10.70;8.07;;;-0.90;99.90;-2.00;99533;;;;560937;250;24119;-73
2022/12/24 06:13:30;;;;;;;11.30;8.37;;;-0.90;99.90;-2.00;99528;;;;566435;250;24103;-73
2022/12/24 06:15:58;;;;;;;10.83;8.63;;;-1.00;99.90;-2.00;99540;;;;562384;250;24097;-74
2022/12/24 06:18:26;;;;;;;10.67;8.03;;;-1.00;99.90;-2.00;99531;;;;565432;250;24082;-73
2022/12/24 06:20:54;;;;;;;9.27;8.20;;;-1.00;99.90;-2.00;99543;;;;574122;249;24099;-72
2022/12/24 06:23:22;;;;;;;10.10;8.33;;;-1.00;99.90;-2.00;99538;;;;565873;250;24161;-73
2022/12/24 06:25:50;;;;;;;10.27;8.13;;;-1.00;99.90;-2.00;99543;;;;560264;250;24091;-73
2022/12/24 06:28:18;;;;;;;7.97;7.17;;;-1.00;99.90;-2.00;99542;;;;559995;250;25216;-72
2022/12/24 06:30:46;;;;;;;10.67;7.53;;;-1.00;99.90;-2.00;99552;;;;567273;249;24097;-72
2022/12/24 06:33:14;;;;;;;11.53;9.00;;;-0.90;99.90;-2.00;99557;;;;569630;245;24133;-73
2022/12/24 06:35:41;;;;;;;12.20;9.67;;;-0.90;99.90;-1.90;99556;;;;583250;244;24088;-71
2022/12/24 06:38:09;;;;;;;12.33;10.67;;;-0.90;99.90;-2.00;99568;;;;575406;244;24102;-73
2022/12/24 06:40:41;;;;;;;15.10;12.30;;;-0.90;99.90;-2.00;99564;;;;566247;243;35165;-73
2022/12/24 06:43:07;;;;;;;45.78;30.95;;;-0.90;99.90;-2.00;99578;;;;557429;249;35415;-73
2022/12/24 06:45:35;;;;;;;47.67;28.70;;;-1.00;99.90;-2.00;99581;;;;586514;242;24070;-74
2022/12/24 06:48:03;;;;;;;76.00;50.20;;;-1.00;99.90;-2.00;99584;;;;577587;244;24072;-73
2022/12/24 06:50:31;;;;;;;80.97;51.00;;;-1.00;99.90;-2.00;99589;;;;586638;243;24064;-73
2022/12/24 06:53:00;;;;;;;68.33;44.20;;;-0.90;99.90;-1.90;99590;;;;577343;244;24101;-73
2022/12/24 06:55:28;;;;;;;79.00;52.57;;;-0.90;99.90;-1.80;99593;;;;577662;244;24133;-73
2022/12/24 06:57:56;;;;;;;63.37;44.43;;;-0.80;99.90;-1.60;99605;;;;577596;244;24112;-74
2022/12/24 07:00:24;;;;;;;29.60;20.07;;;-0.50;99.90;-1.50;99602;;;;577979;244;24114;-76
2022/12/24 07:02:53;;;;;;;27.13;17.73;;;-0.30;99.90;-1.40;99609;;;;578990;243;24053;-75
2022/12/24 07:05:22;;;;;;;23.03;16.63;;;-0.20;99.90;-1.20;99605;;;;579625;244;24059;-76
2022/12/24 07:07:50;;;;;;;23.93;16.93;;;-0.20;99.90;-1.10;99612;;;;579213;244;24116;-74
2022/12/24 07:10:21;;;;;;;15.93;11.53;;;-0.10;99.90;-1.00;99622;;;;587859;243;24165;-72
2022/12/24 07:12:49;;;;;;;13.50;9.63;;;0.10;99.90;-0.90;99623;;;;587781;243;24129;-73
2022/12/24 07:15:17;;;;;;;12.50;8.87;;;0.10;99.90;-0.80;99618;;;;578540;244;24058;-73
2022/12/24 07:17:45;;;;;;;12.10;8.60;;;0.20;99.90;-0.70;99633;;;;578451;244;24058;-76
2022/12/24 07:20:16;;;;;;;14.60;11.40;;;0.30;99.90;-0.60;99636;;;;578648;244;24059;-72
2022/12/24 07:22:44;;;;;;;13.63;9.20;;;0.30;99.90;-0.60;99643;;;;587229;243;24060;-76
2022/12/24 07:25:12;;;;;;;12.03;8.87;;;0.40;99.90;-0.50;99643;;;;578337;244;24075;-74
2022/12/24 07:27:40;;;;;;;5.87;4.50;;;0.50;99.90;-0.50;99647;;;;587168;243;24088;-72
2022/12/24 07:30:11;;;;;;;6.37;4.73;;;0.60;99.90;-0.40;99655;;;;578416;244;24068;-75
2022/12/24 07:32:36;;;;;;;10.30;8.50;;;0.60;99.90;-0.40;99655;;;;574126;244;24059;-72
2022/12/24 07:35:05;;;;;;;11.67;8.20;;;0.70;99.90;-0.40;99651;;;;578333;244;24140;-75
2022/12/24 07:37:35;;;;;;;8.13;6.20;;;0.70;99.90;-0.30;99654;;;;578246;246;24323;-73
2022/12/24 07:40:00;;;;;;;9.53;6.97;;;0.70;99.90;-0.40;99666;;;;562807;251;24144;-74
2022/12/24 07:42:28;;;;;;;11.00;8.00;;;0.70;99.90;-0.40;99666;;;;570660;250;24125;-73
2022/12/24 07:44:56;;;;;;;77.10;32.07;;;0.70;99.90;-0.30;99673;;;;552458;256;24142;-77
2022/12/24 07:47:24;;;;;;;73.07;32.07;;;0.70;99.90;-0.30;99670;;;;552863;254;24086;-78
2022/12/24 07:49:52;;;;;;;94.00;42.70;;;0.70;99.90;-0.30;99675;;;;553076;254;24179;-80
2022/12/24 07:52:20;;;;;;;138.23;54.97;;;0.70;99.90;-0.30;99679;;;;552983;254;24141;-76
2022/12/24 07:54:48;;;;;;;55.77;26.23;;;0.80;99.90;-0.20;99686;;;;563508;254;24149;-77
2022/12/24 07:57:16;;;;;;;36.83;17.93;;;0.90;99.90;-0.10;99691;;;;553433;254;24112;-75
2022/12/24 07:59:44;;;;;;;20.27;10.43;;;0.90;99.90;0.10;99690;;;;555295;250;24170;-75
2022/12/24 08:02:12;;;;;;;12.60;8.33;;;1.00;99.90;0.20;99696;;;;570962;247;24121;-72
2022/12/24 08:04:40;;;;;;;11.43;8.37;;;1.20;99.90;0.40;99691;;;;579603;247;24153;-78
2022/12/24 08:07:07;;;;;;;10.33;6.97;;;1.30;99.90;0.40;99696;;;;579594;247;24082;-77
2022/12/24 08:09:38;;;;;;;7.20;4.87;;;1.40;99.90;0.50;99696;;;;582256;244;24095;-77
2022/12/24 08:12:03;;;;;;;6.90;4.23;;;1.50;99.90;0.50;99714;;;;561277;253;24138;-75
2022/12/24 08:14:31;;;;;;;8.23;4.80;;;1.50;99.90;0.50;99706;;;;578100;244;24091;-79
2022/12/24 08:16:59;;;;;;;7.87;4.17;;;1.50;99.90;0.40;99714;;;;578147;244;24155;-77
2022/12/24 08:19:27;;;;;;;6.47;4.07;;;1.50;99.90;0.50;99715;;;;566711;253;24102;-79
2022/12/24 08:21:55;;;;;;;5.60;3.47;;;1.40;99.90;0.50;99718;;;;568243;250;24107;-76
2022/12/24 08:24:23;;;;;;;5.60;3.27;;;1.50;99.90;0.60;99722;;;;569839;250;24103;-77
2022/12/24 08:26:51;;;;;;;6.23;4.60;;;1.60;99.90;0.80;99715;;;;554703;251;25517;-77
2022/12/24 08:29:19;;;;;;;4.80;3.43;;;2.00;99.90;1.10;99723;;;;576042;243;24102;-78
2022/12/24 08:31:51;;;;;;;3.40;3.10;;;2.00;99.90;1.30;99722;;;;585847;243;24044;-78
2022/12/24 08:34:15;;;;;;;6.67;3.67;;;2.20;99.90;1.50;99728;;;;586907;243;24101;-77
2022/12/24 08:36:43;;;;;;;8.40;4.07;;;2.40;99.90;1.70;99722;;;;589124;243;24063;-76
2022/12/24 08:39:11;;;;;;;3.47;3.00;;;2.60;99.90;1.80;99734;;;;571460;248;24169;-77
2022/12/24 08:41:40;;;;;;;4.50;2.77;;;2.80;99.90;1.80;99737;;;;582412;243;24106;-80
2022/12/24 08:44:07;;;;;;;4.60;3.47;;;2.80;99.90;1.80;99740;;;;571297;247;25410;-78
2022/12/24 08:46:35;;;;;;;7.97;5.12;;;2.80;99.90;1.80;99743;;;;567937;244;35302;-72
2022/12/24 08:49:03;;;;;;;8.73;5.53;;;2.80;99.90;1.80;99750;;;;576319;244;46018;-72
2022/12/24 08:51:31;;;;;;;6.47;4.67;;;2.80;99.90;1.80;99749;;;;566460;248;24114;-73
2022/12/24 08:53:59;;;;;;;4.53;4.13;;;2.80;99.90;1.80;99756;;;;588333;243;24080;-73
2022/12/24 08:56:27;;;;;;;4.73;4.07;;;2.80;99.90;1.80;99758;;;;588649;243;24077;-74
2022/12/24 08:58:55;;;;;;;6.13;4.00;;;2.80;99.90;1.80;99757;;;;579550;243;24159;-82
2022/12/24 09:01:24;;;;;;;10.57;3.87;;;2.90;99.90;1.90;99770;;;;570241;248;24105;-75
2022/12/24 09:03:51;;;;;;;4.23;3.53;;;2.80;99.90;1.90;99767;;;;571145;246;24094;-72
2022/12/24 09:06:19;;;;;;;6.63;4.20;;;2.90;99.90;1.90;99771;;;;575560;249;24166;-73
2022/12/24 09:08:47;;;;;;;7.20;4.50;;;2.90;99.90;1.90;99771;;;;575307;245;24133;-78
2022/12/24 09:11:15;;;;;;;7.13;4.03;;;2.90;99.90;1.90;99778;;;;573996;247;24080;-74
2022/12/24 09:13:44;;;;;;;11.52;6.40;;;2.80;99.90;1.80;99771;;;;562111;248;35302;-77
2022/12/24 09:16:18;;;;;;;6.17;4.40;;;2.80;99.90;1.80;99775;;;;577377;248;24112;-74
2022/12/24 09:18:42;;;;;;;4.90;4.03;;;2.80;99.90;1.80;99769;;;;571095;251;24151;-73
2022/12/24 09:21:16;;;;;;;4.27;3.67;;;2.80;99.90;1.80;99774;;;;583132;240;24068;-71
2022/12/24 09:23:39;;;;;;;4.97;4.30;;;2.70;99.90;1.70;99769;;;;572567;251;24109;-73
2022/12/24 09:26:13;;;;;;;7.10;4.00;;;2.70;99.90;1.70;99774;;;;583609;244;24054;-72
2022/12/24 09:28:41;;;;;;;4.97;3.63;;;2.60;99.90;1.70;99783;;;;569443;248;24153;-72
2022/12/24 09:31:13;;;;;;;6.23;3.57;;;2.60;99.90;1.70;99791;;;;565107;252;24115;-73
2022/12/24 09:33:40;;;;;;;6.43;4.10;;;2.60;99.90;1.70;99794;;;;581568;243;24120;-74
2022/12/24 09:36:05;;;;;;;4.93;3.53;;;2.60;99.90;1.60;99799;;;;579373;243;24071;-76
2022/12/24 09:38:33;;;;;;;6.90;3.00;;;2.60;99.90;1.60;99803;;;;590298;243;24135;-75
2022/12/24 09:41:04;;;;;;;5.13;3.17;;;2.60;99.90;1.70;99820;;;;590878;242;24086;-77
2022/12/24 09:43:28;;;;;;;3.00;2.80;;;2.60;99.90;1.70;99813;;;;590413;243;24076;-74
2022/12/24 09:46:34;;;;;;;3.97;2.87;;;2.60;99.90;1.60;99809;;;;574684;247;24122;-74
2022/12/24 09:49:04;;;;;;;2.40;1.87;;;2.60;99.90;1.70;99807;;;;578938;241;24219;-74
2022/12/24 09:51:47;;;;;;;2.90;2.20;;;2.60;99.90;1.60;99817;;;;561654;252;24120;-77
2022/12/24 09:54:42;;;;;;;3.53;2.00;;;2.60;99.90;1.60;99811;;;;562352;250;24117;-74
2022/12/24 09:57:26;;;;;;;2.20;1.80;;;2.50;99.90;1.60;99810;;;;548388;255;24174;-74
2022/12/24 09:59:53;;;;;;;1.97;1.70;;;2.50;99.90;1.50;99811;;;;558061;257;24156;-74
2022/12/24 10:02:24;;;;;;;2.87;2.43;;;2.50;99.90;1.50;99805;;;;557707;251;24143;-71
2022/12/24 10:04:49;;;;;;;3.40;2.87;;;2.50;99.90;1.50;99807;;;;561596;253;24149;-74
2022/12/24 10:07:39;;;;;;;5.23;2.03;;;2.40;99.90;1.50;99812;;;;566783;248;24133;-73
2022/12/24 10:10:31;;;;;;;6.40;2.87;;;2.40;99.90;1.50;99812;;;;580128;243;24051;-77
2022/12/24 10:13:18;;;;;;;3.93;2.23;;;2.40;99.90;1.50;99827;;;;568134;248;24137;-77
2022/12/24 10:15:50;;;;;;;3.53;2.27;;;2.40;99.90;1.40;99820;;;;572395;244;24150;-74
2022/12/24 10:18:38;;;;;;;3.33;1.80;;;2.40;99.90;1.50;99826;;;;569485;248;24188;-78
2022/12/24 10:21:12;;;;;;;2.53;2.10;;;2.40;99.90;1.50;99820;;;;557665;253;24131;-75
2022/12/24 10:23:59;;;;;;;1.33;1.23;;;2.40;99.90;1.50;99828;;;;566732;253;24125;-77
2022/12/24 10:26:27;;;;;;;3.43;2.00;;;2.40;99.90;1.50;99825;;;;581097;246;24124;-78
2022/12/24 10:28:59;;;;;;;1.33;1.10;;;2.40;99.90;1.50;99840;;;;573217;250;24108;-78
2022/12/24 10:31:30;;;;;;;2.93;1.53;;;2.40;99.90;1.50;99845;;;;568649;250;24188;-78
2022/12/24 10:34:07;;;;;;;2.53;0.87;;;2.40;99.90;1.50;99837;;;;575377;247;24203;-77
2022/12/24 10:36:31;;;;;;;1.77;1.30;;;2.40;99.90;1.50;99842;;;;577090;243;24098;-77
2022/12/24 10:39:02;;;;;;;3.60;2.00;;;2.40;99.90;1.50;99833;;;;588100;242;24107;-74
2022/12/24 10:41:26;;;;;;;1.30;1.20;;;2.40;99.90;1.50;99833;;;;576093;248;24116;-74
2022/12/24 10:43:57;;;;;;;2.43;1.00;;;2.50;99.90;1.50;99836;;;;559320;254;24141;-77
2022/12/24 10:46:32;;;;;;;1.10;1.10;;;2.50;99.90;1.50;99852;;;;568529;252;24194;-79
2022/12/24 10:49:21;;;;;;;1.50;1.40;;;2.50;99.90;1.60;99841;;;;565626;252;24115;-73
2022/12/24 10:51:53;;;;;;;1.40;1.30;;;2.50;99.90;1.60;99848;;;;559529;252;24134;-76
2022/12/24 10:54:21;;;;;;;2.93;2.20;;;2.50;99.90;1.60;99851;;;;559862;252;24156;-74
2022/12/24 10:56:52;;;;;;;2.63;1.60;;;2.50;99.90;1.60;99845;;;;558405;252;24206;-75
2022/12/24 10:59:39;;;;;;;1.90;1.70;;;2.50;99.90;1.60;99851;;;;559555;252;24149;-75
2022/12/24 11:02:35;;;;;;;2.87;2.07;;;2.50;99.90;1.50;99859;;;;559732;252;24134;-74
2022/12/24 11:05:03;;;;;;;3.90;2.17;;;2.50;99.90;1.60;99861;;;;559992;252;24119;-75
2022/12/24 11:07:31;;;;;;;4.73;3.57;;;2.50;99.90;1.60;99860;;;;557504;248;24129;-76
2022/12/24 11:10:01;;;;;;;2.83;2.20;;;2.40;99.90;1.50;99854;;;;561672;254;24132;-75
2022/12/24 11:12:35;;;;;;;5.07;3.77;;;2.40;99.90;1.50;99867;;;;560478;252;24122;-75
2022/12/24 11:15:27;;;;;;;3.27;2.50;;;2.40;99.90;1.50;99876;;;;559109;252;24141;-74
2022/12/24 11:18:02;;;;;;;7.37;4.77;;;2.40;99.90;1.60;99869;;;;563210;251;24084;-75
2022/12/24 11:20:28;;;;;;;3.80;2.70;;;2.40;99.90;1.60;99866;;;;560938;251;24099;-74
2022/12/24 11:22:56;;;;;;;4.53;2.77;;;2.50;99.90;1.60;99867;;;;561936;251;24192;-74
2022/12/24 11:25:30;;;;;;;4.50;2.80;;;2.50;99.90;1.60;99870;;;;563130;251;24220;-77
2022/12/24 11:27:58;;;;;;;7.60;4.27;;;2.40;99.90;1.50;99870;;;;571402;251;25178;-77
2022/12/24 11:30:26;;;;;;;7.03;3.73;;;2.40;99.90;1.50;99874;;;;562152;249;24104;-81
2022/12/24 11:33:03;;;;;;;4.37;3.30;;;2.40;99.90;1.50;99878;;;;562027;251;24115;-74
2022/12/24 11:35:31;;;;;;;5.03;3.77;;;2.40;99.90;1.50;99873;;;;571210;247;24095;-77
2022/12/24 11:38:02;;;;;;;5.37;2.83;;;2.40;99.90;1.50;99878;;;;562960;250;24147;-79